Time;durP1;ratioP1;P1;durP2;ratioP2;P2;SDS_P1;SDS_P2;PMS_P1;PMS_P2;Temp;Humidity;BMP_temperature;BMP_pressure;BME280_temperature;BME280_humidity;BME280_pressure;Samples;Min_cycle;Max_cycle;Signal;HPM_P1;HPM_P2
2021/01/21 00:01:52;;;;;;;20.17;12.10;;;3.70;89.30;;;;;;4978800;28;20218;-69
2021/01/21 00:04:19;;;;;;;13.30;11.90;;;3.70;89.20;;;;;;4978061;28;20228;-69
2021/01/21 00:06:45;;;;;;;16.10;13.60;;;3.90;89.40;;;;;;4979476;28;20212;-69
2021/01/21 00:09:13;;;;;;;15.35;12.73;;;3.90;88.80;;;;;;4994051;28;20200;-68
2021/01/21 00:11:40;;;;;;;19.00;12.90;;;3.90;88.30;;;;;;4981853;28;20207;-69
2021/01/21 00:14:07;;;;;;;21.90;13.77;;;4.00;88.10;;;;;;4979800;28;20255;-68
2021/01/21 00:16:33;;;;;;;13.98;10.65;;;3.90;88.10;;;;;;4979143;28;20387;-69
2021/01/21 00:19:00;;;;;;;15.70;11.23;;;3.90;88.40;;;;;;4981539;28;20213;-68
2021/01/21 00:21:27;;;;;;;20.05;12.93;;;4.00;88.30;;;;;;4984921;28;20378;-68
2021/01/21 00:23:54;;;;;;;17.80;12.02;;;4.00;87.70;;;;;;4982138;28;20211;-69
2021/01/21 00:26:21;;;;;;;15.35;11.90;;;4.00;87.50;;;;;;4983928;28;20218;-69
2021/01/21 00:28:47;;;;;;;15.90;10.40;;;4.10;87.50;;;;;;4985032;28;20227;-70
2021/01/21 00:31:14;;;;;;;14.88;10.35;;;4.00;88.40;;;;;;5000662;28;20390;-69
2021/01/21 00:33:40;;;;;;;12.85;10.63;;;4.00;87.50;;;;;;4984021;28;20235;-69
2021/01/21 00:36:07;;;;;;;14.88;9.98;;;4.00;87.80;;;;;;4982675;28;20209;-69
2021/01/21 00:38:34;;;;;;;14.85;11.25;;;4.10;87.10;;;;;;4986558;28;20212;-69
2021/01/21 00:41:03;;;;;;;17.05;11.10;;;4.20;86.90;;;;;;4983738;28;20248;-69
2021/01/21 00:43:29;;;;;;;11.82;10.30;;;4.10;87.00;;;;;;4990554;28;20204;-69
2021/01/21 00:45:56;;;;;;;16.70;10.30;;;4.10;86.70;;;;;;4985778;28;20206;-68
2021/01/21 00:48:23;;;;;;;15.98;9.75;;;4.10;86.60;;;;;;4984986;28;20209;-69
2021/01/21 00:50:50;;;;;;;13.55;10.70;;;4.20;86.40;;;;;;4982836;28;20530;-68
2021/01/21 00:53:16;;;;;;;13.88;10.88;;;4.20;86.60;;;;;;4982244;28;20239;-68
2021/01/21 00:55:43;;;;;;;12.88;11.13;;;4.10;86.70;;;;;;4981784;28;20232;-68
2021/01/21 00:58:10;;;;;;;14.95;10.50;;;4.10;86.70;;;;;;4982779;28;20209;-69
2021/01/21 01:00:36;;;;;;;15.45;10.32;;;4.10;86.70;;;;;;4985423;28;20557;-69
2021/01/21 01:03:09;;;;;;;14.63;11.27;;;4.20;86.10;;;;;;4984503;28;20231;-69
2021/01/21 01:05:36;;;;;;;12.60;10.48;;;4.10;86.70;;;;;;4997325;28;20229;-69
2021/01/21 01:08:03;;;;;;;13.18;10.05;;;4.20;86.70;;;;;;4981194;28;20213;-69
2021/01/21 01:10:30;;;;;;;11.85;10.60;;;4.00;87.00;;;;;;4984105;28;20205;-68
2021/01/21 01:12:56;;;;;;;13.38;10.65;;;4.00;87.90;;;;;;4981720;28;20850;-69
2021/01/21 01:15:30;;;;;;;19.75;11.88;;;3.90;87.50;;;;;;4980698;28;20209;-68
2021/01/21 01:17:56;;;;;;;16.52;11.05;;;3.90;87.60;;;;;;4985224;28;20220;-69
2021/01/21 01:20:23;;;;;;;13.63;10.45;;;3.90;87.80;;;;;;4982614;28;20214;-68
2021/01/21 01:22:51;;;;;;;16.25;10.48;;;3.80;87.80;;;;;;4980785;28;20211;-68
2021/01/21 01:25:19;;;;;;;13.85;10.60;;;3.90;88.10;;;;;;4993644;28;20235;-68
2021/01/21 01:27:46;;;;;;;14.25;11.35;;;3.60;88.90;;;;;;4981652;28;20207;-68
2021/01/21 01:30:14;;;;;;;14.65;10.30;;;3.80;88.60;;;;;;4982944;28;20212;-68
2021/01/21 01:32:41;;;;;;;16.95;10.90;;;3.90;88.00;;;;;;4987662;28;20213;-68
2021/01/21 01:35:08;;;;;;;14.15;10.13;;;3.90;87.50;;;;;;4981848;28;20212;-69
2021/01/21 01:37:39;;;;;;;19.83;10.63;;;4.00;87.00;;;;;;4981870;28;20257;-69
2021/01/21 01:40:15;;;;;;;16.77;9.98;;;4.00;87.30;;;;;;4982986;28;20209;-69
2021/01/21 01:42:44;;;;;;;11.35;9.18;;;4.20;86.60;;;;;;4981496;28;20235;-68
2021/01/21 01:45:12;;;;;;;23.02;11.68;;;4.20;86.50;;;;;;4981550;28;20278;-69
2021/01/21 01:47:42;;;;;;;17.48;12.10;;;4.20;86.70;;;;;;4983682;28;20257;-69
2021/01/21 01:50:10;;;;;;;17.95;11.73;;;4.10;86.70;;;;;;4982860;28;20521;-68
2021/01/21 01:52:41;;;;;;;15.02;10.38;;;4.10;87.80;;;;;;4988961;28;20385;-68
2021/01/21 01:55:18;;;;;;;15.07;10.25;;;4.50;87.50;;;;;;4982145;28;20209;-68
2021/01/21 01:57:50;;;;;;;14.00;9.80;;;4.10;87.40;;;;;;4984119;28;20646;-69
2021/01/21 02:00:18;;;;;;;18.45;12.55;;;4.10;87.10;;;;;;4983569;28;20213;-67
2021/01/21 02:02:49;;;;;;;17.85;10.93;;;4.10;86.90;;;;;;4979422;28;20201;-68
2021/01/21 02:05:17;;;;;;;18.40;12.02;;;4.00;87.50;;;;;;4984730;28;20237;-68
2021/01/21 02:07:44;;;;;;;18.88;11.32;;;4.10;87.20;;;;;;5016118;28;20209;-68
2021/01/21 02:10:13;;;;;;;19.45;10.48;;;4.00;87.60;;;;;;4981686;28;20210;-68
2021/01/21 02:13:07;;;;;;;16.65;11.45;;;4.10;87.40;;;;;;4979404;28;20624;-68
2021/01/21 02:15:55;;;;;;;13.27;9.98;;;4.00;87.20;;;;;;4982432;28;20204;-68
2021/01/21 02:18:30;;;;;;;12.80;9.70;;;4.10;87.00;;;;;;4979467;28;20228;-68
2021/01/21 02:21:15;;;;;;;11.38;8.88;;;4.10;87.60;;;;;;4982020;28;20263;-68
2021/01/21 02:24:00;;;;;;;17.80;11.35;;;4.10;87.40;;;;;;4979630;28;20205;-68
2021/01/21 02:26:36;;;;;;;13.60;9.98;;;4.10;87.10;;;;;;4982519;28;20607;-70
2021/01/21 02:29:18;;;;;;;18.00;12.25;;;4.30;86.10;;;;;;4980251;28;20216;-68
2021/01/21 02:31:57;;;;;;;17.95;11.13;;;4.40;85.40;;;;;;5010395;28;20205;-68
2021/01/21 02:34:29;;;;;;;12.63;9.70;;;4.60;84.70;;;;;;4981654;28;20225;-68
2021/01/21 02:36:58;;;;;;;15.32;10.02;;;4.60;84.10;;;;;;4984307;28;20217;-68
2021/01/21 02:39:26;;;;;;;14.48;10.48;;;4.70;83.80;;;;;;4982165;28;20221;-68
2021/01/21 02:41:53;;;;;;;10.63;8.40;;;4.70;84.00;;;;;;4982279;28;20279;-68
2021/01/21 02:44:19;;;;;;;10.45;8.57;;;4.70;83.80;;;;;;4981700;28;20523;-69
2021/01/21 02:46:48;;;;;;;9.88;7.78;;;4.80;84.00;;;;;;4980435;28;20232;-69
2021/01/21 02:49:16;;;;;;;11.40;8.18;;;4.80;83.80;;;;;;4981899;28;20256;-70
2021/01/21 02:52:01;;;;;;;11.82;9.20;;;4.90;83.30;;;;;;5000716;28;20210;-68
2021/01/21 02:54:36;;;;;;;11.90;8.15;;;4.90;83.20;;;;;;4980955;28;20610;-68
2021/01/21 02:57:06;;;;;;;12.93;8.27;;;5.00;82.90;;;;;;4988242;28;20210;-68
2021/01/21 02:59:39;;;;;;;10.40;7.25;;;5.00;82.70;;;;;;4982525;28;20213;-69
2021/01/21 03:02:10;;;;;;;9.55;8.15;;;5.00;83.20;;;;;;4982842;28;20277;-68
2021/01/21 03:04:38;;;;;;;11.77;9.05;;;5.10;83.00;;;;;;4979489;28;20232;-68
2021/01/21 03:07:09;;;;;;;14.15;8.77;;;5.10;82.90;;;;;;4983793;28;20208;-69
2021/01/21 03:09:42;;;;;;;12.70;9.18;;;5.20;82.80;;;;;;4984158;28;20209;-68
2021/01/21 03:12:25;;;;;;;16.73;11.27;;;5.10;83.60;;;;;;4982601;28;20245;-69
2021/01/21 03:14:56;;;;;;;35.65;19.15;;;5.20;83.00;;;;;;4982839;28;20296;-67
2021/01/21 03:17:25;;;;;;;18.02;13.00;;;5.20;82.60;;;;;;4978724;28;20210;-68
2021/01/21 03:19:52;;;;;;;14.18;9.93;;;5.30;82.90;;;;;;4978430;28;20265;-68
2021/01/21 03:22:19;;;;;;;21.25;13.88;;;5.10;83.00;;;;;;4979979;28;20210;-69
2021/01/21 03:24:46;;;;;;;20.00;12.15;;;5.00;83.30;;;;;;4981808;28;20205;-68
2021/01/21 03:27:14;;;;;;;22.45;15.18;;;4.80;84.10;;;;;;5013091;28;20433;-68
2021/01/21 03:29:40;;;;;;;24.30;15.13;;;4.70;84.50;;;;;;4978606;28;21376;-68
2021/01/21 03:32:07;;;;;;;20.52;14.07;;;4.60;85.20;;;;;;4981050;28;20209;-68
2021/01/21 03:34:33;;;;;;;31.08;18.20;;;4.50;85.50;;;;;;4984182;28;20267;-68
2021/01/21 03:37:00;;;;;;;20.27;14.30;;;4.40;86.00;;;;;;4979194;28;20455;-68
2021/01/21 03:39:26;;;;;;;19.05;13.93;;;4.40;86.20;;;;;;4977922;28;20221;-68
2021/01/21 03:41:53;;;;;;;18.00;14.48;;;4.40;87.10;;;;;;4980168;28;20496;-68
2021/01/21 03:44:20;;;;;;;20.70;13.10;;;4.40;86.50;;;;;;4978737;28;20542;-68
2021/01/21 03:46:46;;;;;;;16.33;12.07;;;4.40;86.50;;;;;;5009713;28;20219;-68
2021/01/21 03:49:13;;;;;;;14.63;10.30;;;4.40;86.60;;;;;;4981038;28;20279;-68
2021/01/21 03:51:40;;;;;;;16.95;12.88;;;4.40;86.70;;;;;;4980267;28;20511;-68
2021/01/21 03:54:06;;;;;;;14.52;11.38;;;4.50;85.70;;;;;;4980133;28;20756;-68
2021/01/21 03:56:33;;;;;;;20.63;13.80;;;4.70;85.20;;;;;;4979922;28;20215;-68
2021/01/21 03:59:00;;;;;;;14.00;10.63;;;4.70;85.40;;;;;;4980261;28;20207;-68
2021/01/21 04:01:27;;;;;;;13.43;11.43;;;4.70;85.40;;;;;;4978724;28;20421;-69
2021/01/21 04:03:53;;;;;;;16.13;10.55;;;4.80;84.70;;;;;;4978241;28;20217;-68
2021/01/21 04:06:23;;;;;;;14.30;11.07;;;4.70;84.80;;;;;;4980448;28;20206;-69
2021/01/21 04:08:50;;;;;;;15.52;11.55;;;4.80;84.70;;;;;;4980302;28;20583;-69
2021/01/21 04:11:16;;;;;;;23.65;13.15;;;4.80;85.10;;;;;;4978997;28;20213;-69
2021/01/21 04:13:43;;;;;;;13.82;10.43;;;4.90;84.70;;;;;;4978106;28;20256;-68
2021/01/21 04:16:10;;;;;;;19.08;13.25;;;4.80;84.30;;;;;;4979789;28;20220;-68
2021/01/21 04:18:36;;;;;;;16.85;12.57;;;4.70;84.90;;;;;;4980919;28;20244;-68
2021/01/21 04:21:03;;;;;;;19.10;12.85;;;4.70;85.00;;;;;;4979338;28;20237;-68
2021/01/21 04:23:30;;;;;;;16.13;12.90;;;4.70;85.50;;;;;;4978137;28;20280;-69
2021/01/21 04:25:56;;;;;;;17.90;13.82;;;4.60;85.70;;;;;;4993168;28;20212;-68
2021/01/21 04:28:23;;;;;;;16.67;12.40;;;2.90;84.80;;;;;;4978300;28;20376;-68
2021/01/21 04:30:49;;;;;;;17.80;12.38;;;4.50;86.20;;;;;;5012218;28;20444;-68
2021/01/21 04:33:16;;;;;;;26.05;13.80;;;4.60;86.70;;;;;;4977887;28;20648;-70
2021/01/21 04:35:43;;;;;;;20.60;13.80;;;4.50;86.00;;;;;;4979833;28;20206;-70
2021/01/21 04:38:09;;;;;;;20.13;13.88;;;4.50;86.20;;;;;;4983450;28;20704;-68
2021/01/21 04:40:36;;;;;;;18.05;14.30;;;4.40;86.30;;;;;;4983207;28;20222;-68
2021/01/21 04:43:03;;;;;;;19.20;14.00;;;4.40;86.50;;;;;;4983361;28;20217;-69
2021/01/21 04:45:29;;;;;;;19.20;13.80;;;4.40;86.90;;;;;;4981821;28;20355;-68
2021/01/21 04:47:56;;;;;;;22.08;13.32;;;4.50;86.30;;;;;;4978569;28;20209;-68
2021/01/21 04:50:24;;;;;;;18.55;14.38;;;4.00;86.10;;;;;;4979580;28;20275;-68
2021/01/21 04:52:53;;;;;;;17.30;13.98;;;4.40;86.50;;;;;;4981714;28;20209;-68
2021/01/21 04:55:29;;;;;;;20.35;12.52;;;4.30;87.60;;;;;;4983319;28;20398;-68
2021/01/21 04:58:09;;;;;;;17.67;12.95;;;4.30;87.60;;;;;;4979169;28;20212;-70
2021/01/21 05:00:40;;;;;;;18.85;14.30;;;4.20;88.20;;;;;;4981194;28;20259;-69
2021/01/21 05:03:08;;;;;;;20.80;14.15;;;4.10;88.50;;;;;;4978866;28;20392;-68
2021/01/21 05:05:36;;;;;;;15.65;12.88;;;4.10;88.30;;;;;;4981179;28;20505;-68
2021/01/21 05:08:03;;;;;;;17.27;13.15;;;4.20;88.20;;;;;;4983608;28;20228;-68
2021/01/21 05:10:30;;;;;;;21.42;14.85;;;4.10;88.40;;;;;;4984995;28;20209;-69
2021/01/21 05:12:57;;;;;;;19.48;13.05;;;4.20;88.50;;;;;;4981617;28;20241;-70
2021/01/21 05:15:24;;;;;;;15.45;12.85;;;4.20;88.30;;;;;;4981144;28;20209;-68
2021/01/21 05:17:51;;;;;;;19.42;14.23;;;4.10;88.40;;;;;;4983032;28;20285;-68
2021/01/21 05:20:23;;;;;;;20.95;12.60;;;4.00;89.80;;;;;;4982700;28;20213;-68
2021/01/21 05:22:55;;;;;;;19.17;14.65;;;4.00;89.60;;;;;;4984162;28;20568;-69
2021/01/21 05:25:21;;;;;;;15.13;12.05;;;4.10;90.00;;;;;;4981584;28;20213;-67
2021/01/21 05:27:48;;;;;;;17.27;12.15;;;4.00;90.00;;;;;;4983699;28;20212;-68
2021/01/21 05:30:16;;;;;;;20.10;13.30;;;4.00;89.70;;;;;;4986486;28;20232;-68
2021/01/21 05:32:44;;;;;;;21.05;12.45;;;4.10;89.80;;;;;;5014416;28;20366;-69
2021/01/21 05:35:14;;;;;;;18.65;11.93;;;4.10;89.90;;;;;;4982484;28;20248;-69
2021/01/21 05:37:43;;;;;;;20.95;13.95;;;4.00;90.20;;;;;;4984819;28;20212;-69
2021/01/21 05:40:11;;;;;;;17.48;12.80;;;4.20;90.00;;;;;;4985623;28;20326;-68
2021/01/21 05:42:38;;;;;;;16.05;12.80;;;4.10;90.10;;;;;;4981415;28;20215;-68
2021/01/21 05:45:05;;;;;;;12.20;10.13;;;4.20;90.30;;;;;;4981458;28;20211;-68
2021/01/21 05:47:32;;;;;;;14.30;10.23;;;4.20;90.10;;;;;;4982195;28;20209;-68
2021/01/21 05:50:01;;;;;;;13.75;10.80;;;4.40;90.20;;;;;;4982312;28;20375;-68
2021/01/21 05:52:28;;;;;;;13.55;9.45;;;4.50;90.00;;;;;;4982511;28;20213;-69
2021/01/21 05:54:55;;;;;;;15.88;10.13;;;4.60;89.80;;;;;;4991927;28;20401;-69
2021/01/21 05:57:23;;;;;;;14.52;9.75;;;4.70;89.40;;;;;;4987465;28;20442;-69
2021/01/21 05:59:50;;;;;;;10.05;8.05;;;4.80;89.20;;;;;;4981137;28;20212;-69
2021/01/21 06:02:18;;;;;;;9.68;7.15;;;4.80;89.40;;;;;;4983055;28;20515;-69
2021/01/21 06:04:48;;;;;;;8.88;7.18;;;5.00;89.40;;;;;;4981366;28;20227;-69
2021/01/21 06:07:21;;;;;;;12.88;7.45;;;5.10;88.50;;;;;;4983001;28;20217;-69
2021/01/21 06:09:48;;;;;;;10.30;7.05;;;5.20;87.50;;;;;;4986923;28;20393;-69
2021/01/21 06:12:15;;;;;;;12.10;9.20;;;5.40;87.30;;;;;;4999366;28;20254;-69
2021/01/21 06:14:42;;;;;;;12.98;9.32;;;5.30;87.10;;;;;;4989551;28;20241;-69
2021/01/21 06:17:08;;;;;;;10.60;8.40;;;5.40;87.10;;;;;;4990101;28;20224;-69
2021/01/21 06:19:36;;;;;;;11.38;8.25;;;5.40;86.70;;;;;;4986162;28;20221;-69
2021/01/21 06:22:09;;;;;;;11.95;8.85;;;5.30;86.60;;;;;;4992922;28;20217;-69
2021/01/21 06:24:44;;;;;;;13.82;10.45;;;5.80;88.10;;;;;;4991532;28;20219;-71
2021/01/21 06:27:14;;;;;;;13.32;9.80;;;5.10;88.20;;;;;;4996153;28;20205;-68
2021/01/21 06:29:50;;;;;;;10.88;8.10;;;5.00;88.20;;;;;;4986932;28;20303;-69
2021/01/21 06:32:18;;;;;;;15.35;10.57;;;5.00;88.70;;;;;;4984199;28;20261;-68
2021/01/21 06:34:45;;;;;;;10.38;9.05;;;5.00;88.40;;;;;;4981930;28;20241;-70
2021/01/21 06:37:14;;;;;;;13.95;9.95;;;5.00;88.70;;;;;;4980910;28;20276;-68
2021/01/21 06:40:00;;;;;;;13.98;9.38;;;5.00;88.60;;;;;;4980923;28;20210;-70
2021/01/21 06:42:53;;;;;;;10.88;8.93;;;5.10;88.50;;;;;;4982256;28;20522;-69
2021/01/21 06:45:20;;;;;;;12.95;8.98;;;5.10;88.20;;;;;;4984089;28;20213;-69
2021/01/21 06:47:50;;;;;;;13.35;10.07;;;5.00;88.20;;;;;;4980993;28;20214;-69
2021/01/21 06:50:17;;;;;;;9.60;8.50;;;5.10;88.30;;;;;;4980734;28;20219;-69
2021/01/21 06:52:45;;;;;;;18.02;10.27;;;5.20;88.40;;;;;;4968304;28;20279;-69
2021/01/21 06:55:13;;;;;;;12.20;8.90;;;5.10;88.10;;;;;;4982231;28;20483;-70
2021/01/21 06:57:39;;;;;;;14.75;9.65;;;5.20;88.10;;;;;;4983537;28;20212;-70
2021/01/21 07:00:06;;;;;;;9.38;8.23;;;5.10;88.40;;;;;;4983593;28;20455;-69
2021/01/21 07:02:50;;;;;;;12.63;9.40;;;5.10;88.90;;;;;;4984659;28;20216;-69
2021/01/21 07:05:21;;;;;;;12.18;9.60;;;5.20;88.10;;;;;;4981465;28;20245;-71
2021/01/21 07:07:55;;;;;;;12.05;8.95;;;5.20;88.20;;;;;;4979584;28;20540;-70
2021/01/21 07:10:45;;;;;;;10.02;8.95;;;5.30;87.30;;;;;;4987424;28;20226;-70
2021/01/21 07:13:23;;;;;;;9.75;7.43;;;5.40;86.70;;;;;;4992310;28;20484;-68
2021/01/21 07:15:59;;;;;;;11.82;10.20;;;5.50;85.90;;;;;;4993706;28;20220;-70
2021/01/21 07:18:37;;;;;;;11.23;8.48;;;5.50;86.30;;;;;;4993944;28;20209;-69
2021/01/21 07:21:05;;;;;;;12.55;9.15;;;5.60;85.30;;;;;;4991231;28;20256;-70
2021/01/21 07:23:49;;;;;;;11.82;8.80;;;5.60;86.50;;;;;;4993721;28;20505;-68
2021/01/21 07:26:30;;;;;;;15.23;8.65;;;5.70;85.90;;;;;;4993961;28;20213;-68
2021/01/21 07:29:12;;;;;;;19.83;10.25;;;5.70;85.90;;;;;;4995919;28;20309;-68
2021/01/21 07:31:58;;;;;;;14.60;10.25;;;5.70;85.50;;;;;;4996480;28;20205;-68
2021/01/21 07:34:37;;;;;;;17.98;11.90;;;5.70;85.20;;;;;;4992116;28;20288;-68
2021/01/21 07:37:25;;;;;;;17.80;12.50;;;5.60;85.30;;;;;;4991531;28;20700;-69
2021/01/21 07:40:05;;;;;;;25.58;14.30;;;5.50;85.70;;;;;;4996631;28;20219;-69
2021/01/21 07:42:38;;;;;;;31.40;19.33;;;5.60;85.40;;;;;;4990122;28;20213;-70
2021/01/21 07:45:18;;;;;;;25.88;14.05;;;5.60;85.50;;;;;;4990169;28;20233;-70
2021/01/21 07:47:46;;;;;;;21.58;14.93;;;5.60;86.10;;;;;;4996935;28;20293;-68
2021/01/21 07:50:21;;;;;;;18.00;13.02;;;5.70;86.00;;;;;;4990267;28;20274;-68
2021/01/21 07:52:49;;;;;;;22.42;13.82;;;5.70;85.10;;;;;;4992506;28;20201;-69
2021/01/21 07:55:37;;;;;;;18.13;12.10;;;5.70;84.60;;;;;;4983957;28;20229;-69
2021/01/21 07:58:15;;;;;;;17.10;11.48;;;5.70;85.60;;;;;;5019478;28;20500;-68
2021/01/21 08:00:43;;;;;;;17.88;12.95;;;5.70;84.60;;;;;;4988567;28;20508;-69
2021/01/21 08:03:10;;;;;;;16.75;12.13;;;5.80;84.20;;;;;;4983167;28;21146;-69
2021/01/21 08:05:38;;;;;;;15.85;12.13;;;5.90;84.10;;;;;;4983897;28;20571;-69
2021/01/21 08:08:05;;;;;;;19.02;12.02;;;6.00;83.30;;;;;;4983931;28;20570;-70
2021/01/21 08:10:35;;;;;;;17.35;12.63;;;6.10;83.10;;;;;;4980745;28;20217;-69
2021/01/21 08:13:05;;;;;;;15.65;12.20;;;6.10;83.40;;;;;;4975192;28;20572;-69
2021/01/21 08:15:35;;;;;;;25.15;15.57;;;6.20;83.20;;;;;;4991768;28;20240;-69
2021/01/21 08:18:02;;;;;;;23.25;15.25;;;6.10;82.20;;;;;;4993103;28;20215;-70
2021/01/21 08:20:33;;;;;;;24.27;14.35;;;6.30;83.60;;;;;;4993529;28;20580;-70
2021/01/21 08:23:05;;;;;;;18.38;12.52;;;6.20;83.10;;;;;;4993608;28;20258;-69
2021/01/21 08:25:48;;;;;;;19.20;14.40;;;6.30;82.90;;;;;;4991460;28;20620;-68
2021/01/21 08:28:20;;;;;;;59.97;29.17;;;6.30;82.20;;;;;;4995961;28;20205;-70
2021/01/21 08:30:49;;;;;;;25.90;14.82;;;6.40;82.30;;;;;;4980645;28;20400;-69
2021/01/21 08:33:28;;;;;;;21.85;16.33;;;6.30;81.70;;;;;;5018368;28;20214;-68
2021/01/21 08:36:03;;;;;;;31.35;22.25;;;6.30;82.70;;;;;;4989982;28;20210;-69
2021/01/21 08:38:36;;;;;;;30.35;20.27;;;6.30;82.90;;;;;;4996621;28;20207;-70
2021/01/21 08:41:05;;;;;;;27.67;19.38;;;6.30;81.40;;;;;;4992317;28;20217;-70
2021/01/21 08:43:37;;;;;;;19.52;15.88;;;6.40;81.50;;;;;;4991017;28;20213;-70
2021/01/21 08:46:18;;;;;;;19.50;13.55;;;6.30;81.30;;;;;;4992868;28;20437;-69
2021/01/21 08:48:46;;;;;;;16.67;12.75;;;6.30;82.00;;;;;;4995591;28;20280;-69
2021/01/21 08:51:28;;;;;;;20.17;12.85;;;6.20;83.40;;;;;;4996359;28;20210;-69
2021/01/21 08:54:11;;;;;;;21.98;11.75;;;6.40;82.10;;;;;;4994444;28;20235;-70
2021/01/21 08:56:43;;;;;;;18.20;13.43;;;6.40;81.90;;;;;;4995513;28;20210;-70
2021/01/21 08:59:29;;;;;;;28.85;16.45;;;6.40;81.60;;;;;;4995032;28;20206;-70
2021/01/21 09:02:00;;;;;;;19.75;14.48;;;6.40;81.70;;;;;;4999551;28;20232;-71
2021/01/21 09:04:30;;;;;;;19.30;13.82;;;6.40;82.00;;;;;;4996090;28;20498;-69
2021/01/21 09:07:01;;;;;;;28.25;14.77;;;6.40;81.90;;;;;;4994638;28;20500;-69
2021/01/21 09:09:33;;;;;;;22.38;13.90;;;6.50;81.90;;;;;;4986160;28;20236;-71
2021/01/21 09:12:23;;;;;;;20.25;14.68;;;6.50;81.20;;;;;;4988946;28;20256;-69
2021/01/21 09:15:10;;;;;;;26.60;15.77;;;6.50;80.90;;;;;;4996151;28;20259;-70
2021/01/21 09:18:01;;;;;;;24.73;12.85;;;5.80;81.20;;;;;;4991126;28;20213;-70
2021/01/21 09:20:32;;;;;;;21.85;15.20;;;6.50;81.40;;;;;;4990781;28;20210;-70
2021/01/21 09:23:20;;;;;;;19.80;13.32;;;6.40;82.00;;;;;;4995673;28;20607;-69
2021/01/21 09:25:50;;;;;;;23.90;15.15;;;6.40;81.50;;;;;;4998144;28;20589;-70
2021/01/21 09:28:19;;;;;;;19.25;15.02;;;6.60;80.30;;;;;;4999029;28;20210;-69
2021/01/21 09:30:50;;;;;;;21.45;14.55;;;6.40;81.30;;;;;;4996129;28;20519;-70
2021/01/21 09:33:19;;;;;;;35.72;16.15;;;6.30;81.80;;;;;;4987270;28;20216;-70
2021/01/21 09:35:50;;;;;;;22.38;15.60;;;6.30;83.00;;;;;;4993884;28;20209;-69
2021/01/21 09:38:17;;;;;;;33.80;21.25;;;6.20;82.30;;;;;;4988569;28;20216;-70
2021/01/21 09:40:43;;;;;;;22.58;16.02;;;6.20;82.30;;;;;;4981848;28;20212;-70
2021/01/21 09:43:10;;;;;;;25.55;16.73;;;6.30;82.60;;;;;;4991910;28;20206;-68
2021/01/21 09:45:38;;;;;;;25.80;17.50;;;6.40;81.90;;;;;;4991064;28;20305;-70
2021/01/21 09:48:06;;;;;;;20.13;13.95;;;6.40;83.70;;;;;;4992244;28;20245;-70
2021/01/21 09:50:34;;;;;;;23.95;13.60;;;6.50;82.00;;;;;;4992570;28;20543;-69
2021/01/21 09:53:01;;;;;;;23.42;15.25;;;6.50;82.00;;;;;;4994156;28;20384;-70
2021/01/21 09:55:28;;;;;;;31.08;15.48;;;6.50;82.80;;;;;;5004627;28;20233;-70
2021/01/21 09:57:54;;;;;;;20.77;15.60;;;6.60;83.50;;;;;;4987103;28;20206;-70
2021/01/21 10:00:21;;;;;;;17.92;14.02;;;6.60;82.40;;;;;;4989125;28;20197;-69
2021/01/21 10:02:48;;;;;;;17.17;13.55;;;6.60;82.20;;;;;;4992051;28;20506;-70
2021/01/21 10:05:15;;;;;;;21.55;13.98;;;6.80;81.80;;;;;;4988312;28;20253;-70
2021/01/21 10:07:42;;;;;;;18.55;14.25;;;6.80;81.50;;;;;;5009190;28;20206;-70
2021/01/21 10:10:09;;;;;;;20.60;13.65;;;6.90;81.40;;;;;;4994403;28;20212;-71
2021/01/21 10:12:37;;;;;;;18.15;13.60;;;7.00;80.90;;;;;;4988435;28;20440;-71
2021/01/21 10:15:05;;;;;;;20.02;13.40;;;7.00;81.40;;;;;;4995079;28;20543;-70
2021/01/21 10:17:32;;;;;;;16.75;12.77;;;7.20;81.80;;;;;;4989766;28;20198;-70
2021/01/21 10:19:59;;;;;;;18.67;12.23;;;7.50;80.60;;;;;;4983700;28;20202;-70
2021/01/21 10:22:26;;;;;;;16.67;11.48;;;7.70;79.70;;;;;;4996598;28;20213;-70
2021/01/21 10:24:53;;;;;;;15.63;10.88;;;7.80;78.90;;;;;;4994083;28;20411;-71
2021/01/21 10:27:26;;;;;;;38.25;24.48;;;7.90;78.90;;;;;;4993636;28;20554;-71
2021/01/21 10:29:56;;;;;;;71.22;37.38;;;8.00;78.20;;;;;;4998632;28;20228;-71
2021/01/21 10:32:33;;;;;;;41.85;22.60;;;8.00;77.70;;;;;;4997605;28;20400;-70
2021/01/21 10:35:00;;;;;;;53.55;23.50;;;8.20;77.80;;;;;;4985507;28;20533;-70
2021/01/21 10:37:26;;;;;;;33.03;16.35;;;8.30;78.40;;;;;;4998246;28;20202;-71
2021/01/21 10:39:55;;;;;;;21.33;12.95;;;8.80;78.30;;;;;;4990111;28;20205;-70
2021/01/21 10:42:22;;;;;;;27.42;15.60;;;8.30;77.20;;;;;;4997074;28;20209;-69
2021/01/21 10:44:48;;;;;;;14.05;10.07;;;8.40;76.40;;;;;;4989269;28;20214;-70
2021/01/21 10:47:15;;;;;;;19.05;11.32;;;8.40;76.50;;;;;;4989355;28;20651;-70
2021/01/21 10:49:42;;;;;;;16.75;9.75;;;8.40;78.10;;;;;;4989542;28;20501;-71
2021/01/21 10:52:08;;;;;;;20.48;11.07;;;8.50;78.70;;;;;;4984073;28;20309;-69
2021/01/21 10:54:35;;;;;;;12.73;10.15;;;8.50;78.90;;;;;;4980417;28;20230;-71
2021/01/21 10:57:01;;;;;;;16.70;10.68;;;8.50;78.40;;;;;;4990486;28;20229;-71
2021/01/21 10:59:29;;;;;;;11.75;9.65;;;8.60;77.60;;;;;;4994109;28;20269;-71
2021/01/21 11:01:56;;;;;;;15.57;10.95;;;8.70;77.30;;;;;;4995397;28;20229;-71
2021/01/21 11:04:23;;;;;;;14.82;10.05;;;8.80;77.40;;;;;;4994328;28;20631;-71
2021/01/21 11:06:50;;;;;;;13.85;8.70;;;8.80;76.70;;;;;;4992774;28;20218;-71
2021/01/21 11:09:21;;;;;;;16.80;10.65;;;8.80;76.50;;;;;;4997191;28;20207;-71
2021/01/21 11:11:49;;;;;;;14.23;9.88;;;8.60;77.00;;;;;;4998272;28;20245;-71
2021/01/21 11:14:16;;;;;;;12.93;10.23;;;8.60;76.80;;;;;;4983921;28;20450;-71
2021/01/21 11:16:46;;;;;;;18.55;11.90;;;8.50;78.00;;;;;;4986261;28;20220;-70
2021/01/21 11:19:13;;;;;;;10.15;8.55;;;8.60;76.90;;;;;;4985373;28;20238;-72
2021/01/21 11:21:40;;;;;;;12.82;8.43;;;8.60;77.40;;;;;;4997291;28;20268;-72
2021/01/21 11:24:07;;;;;;;18.20;11.02;;;8.70;76.20;;;;;;4997921;28;20645;-71
2021/01/21 11:26:34;;;;;;;12.13;8.80;;;8.90;76.20;;;;;;4997635;28;20206;-71
2021/01/21 11:29:00;;;;;;;13.07;7.90;;;9.10;75.10;;;;;;4988662;28;20499;-72
2021/01/21 11:31:28;;;;;;;12.15;8.35;;;9.00;75.30;;;;;;4994935;28;20526;-72
2021/01/21 11:33:55;;;;;;;12.63;8.05;;;8.80;77.00;;;;;;4994155;28;20248;-72
2021/01/21 11:36:22;;;;;;;11.13;9.70;;;8.90;77.10;;;;;;5023216;28;20210;-72
2021/01/21 11:38:48;;;;;;;16.65;10.32;;;8.90;77.10;;;;;;4997805;28;21290;-70
2021/01/21 11:41:15;;;;;;;18.45;13.00;;;8.90;75.90;;;;;;4997031;28;20404;-72
2021/01/21 11:43:41;;;;;;;12.90;10.18;;;8.90;75.40;;;;;;4996842;28;20274;-72
2021/01/21 11:46:08;;;;;;;17.00;11.23;;;10.20;76.70;;;;;;4989293;28;20214;-72
2021/01/21 11:48:35;;;;;;;17.23;9.82;;;8.80;75.60;;;;;;4995896;28;20211;-70
2021/01/21 11:51:01;;;;;;;24.20;11.00;;;8.80;75.30;;;;;;4988446;28;20508;-72
2021/01/21 11:53:28;;;;;;;10.23;9.18;;;8.80;75.30;;;;;;4982540;28;20211;-73
2021/01/21 11:55:55;;;;;;;26.83;13.00;;;9.00;75.70;;;;;;4992369;28;20213;-71
2021/01/21 11:58:21;;;;;;;12.88;10.00;;;9.00;75.20;;;;;;4982446;28;20219;-71
2021/01/21 12:00:50;;;;;;;25.33;12.10;;;9.00;74.90;;;;;;4981182;28;20250;-73
2021/01/21 12:03:17;;;;;;;15.55;10.13;;;9.00;76.30;;;;;;4990008;28;20213;-72
2021/01/21 12:05:43;;;;;;;22.65;11.85;;;8.90;74.80;;;;;;4986675;28;20239;-72
2021/01/21 12:08:10;;;;;;;13.45;8.63;;;9.10;75.00;;;;;;4995998;28;20210;-71
2021/01/21 12:10:37;;;;;;;15.18;8.77;;;9.20;75.90;;;;;;4994354;28;20221;-71
2021/01/21 12:13:04;;;;;;;9.15;8.20;;;9.20;74.80;;;;;;4993209;28;20245;-72
2021/01/21 12:15:31;;;;;;;18.42;10.55;;;9.20;74.80;;;;;;4991844;28;20422;-71
2021/01/21 12:17:57;;;;;;;11.32;7.68;;;9.30;75.90;;;;;;4996237;28;20215;-71
2021/01/21 12:20:24;;;;;;;11.88;7.95;;;9.30;76.10;;;;;;4981052;28;20218;-72
2021/01/21 12:22:51;;;;;;;14.55;8.23;;;9.30;75.90;;;;;;4996474;28;20201;-71
2021/01/21 12:25:17;;;;;;;14.77;8.05;;;9.40;75.90;;;;;;4994797;28;20211;-72
2021/01/21 12:27:44;;;;;;;11.63;8.95;;;9.50;75.20;;;;;;4987234;28;20210;-71
2021/01/21 12:30:11;;;;;;;16.92;8.25;;;9.50;76.00;;;;;;4982478;28;20208;-73
2021/01/21 12:32:37;;;;;;;11.77;8.70;;;9.50;75.90;;;;;;4982006;28;20211;-71
2021/01/21 12:35:06;;;;;;;16.65;8.93;;;9.60;76.10;;;;;;5001606;28;20422;-72
2021/01/21 12:37:32;;;;;;;11.70;8.55;;;9.60;75.20;;;;;;4992011;28;20226;-72
2021/01/21 12:39:59;;;;;;;9.25;8.23;;;9.60;75.80;;;;;;5000602;28;20207;-71
2021/01/21 12:42:26;;;;;;;13.20;8.93;;;9.50;75.90;;;;;;5000377;28;20242;-73
2021/01/21 12:44:53;;;;;;;12.35;9.80;;;9.50;76.60;;;;;;5027356;28;20523;-73
2021/01/21 12:47:19;;;;;;;13.65;9.50;;;9.50;76.30;;;;;;4991827;28;20237;-70
2021/01/21 12:49:46;;;;;;;10.55;7.70;;;9.50;77.00;;;;;;4996187;28;20274;-73
2021/01/21 12:52:12;;;;;;;15.65;8.77;;;9.50;76.70;;;;;;4997906;28;20239;-71
2021/01/21 12:54:39;;;;;;;12.82;10.13;;;9.50;76.40;;;;;;4993353;28;20329;-71